Time;durP1;ratioP1;P1;durP2;ratioP2;P2;SDS_P1;SDS_P2;PMS_P1;PMS_P2;Temp;Humidity;BMP_temperature;BMP_pressure;BME280_temperature;BME280_humidity;BME280_pressure;Samples;Min_cycle;Max_cycle;Signal;HPM_P1;HPM_P2
2024/03/22 00:00:17;;;;;;;15.20;7.20;;;;;;;1.93;100.00;99794.41;4978514;28;20081;-79
2024/03/22 00:02:45;;;;;;;15.07;7.70;;;;;;;1.87;100.00;99782.56;4962637;28;20116;-75
2024/03/22 00:05:11;;;;;;;17.43;8.13;;;;;;;1.81;100.00;99782.94;4961131;28;20096;-77
2024/03/22 00:07:40;;;;;;;18.90;8.07;;;;;;;1.83;100.00;99791.53;4977658;28;20099;-76
2024/03/22 00:10:08;;;;;;;16.33;7.97;;;;;;;1.84;100.00;99787.13;4960195;28;20046;-76
2024/03/22 00:12:34;;;;;;;13.73;7.50;;;;;;;1.77;100.00;99795.41;4977305;28;20428;-78
2024/03/22 00:15:01;;;;;;;17.27;7.83;;;;;;;1.75;100.00;99793.81;4962102;28;20152;-78
2024/03/22 00:17:30;;;;;;;18.73;8.83;;;;;;;1.72;100.00;99787.00;4946494;28;20076;-78
2024/03/22 00:20:00;;;;;;;20.87;8.10;;;;;;;1.78;100.00;99788.38;4998209;28;20105;-78
2024/03/22 00:22:26;;;;;;;14.77;7.97;;;;;;;1.75;100.00;99783.34;5018707;28;20040;-78
2024/03/22 00:24:52;;;;;;;19.87;8.43;;;;;;;1.72;100.00;99786.16;5004742;28;20481;-79
2024/03/22 00:27:19;;;;;;;16.17;7.90;;;;;;;1.72;100.00;99779.13;5020804;28;20049;-77
2024/03/22 00:29:45;;;;;;;16.07;8.60;;;;;;;1.69;100.00;99778.50;5019624;28;20086;-75
2024/03/22 00:32:12;;;;;;;20.13;8.70;;;;;;;1.69;100.00;99774.09;5003399;28;20045;-76
2024/03/22 00:34:39;;;;;;;17.67;8.60;;;;;;;1.64;100.00;99777.97;5052496;28;20040;-77
2024/03/22 00:37:05;;;;;;;18.77;8.60;;;;;;;1.61;100.00;99772.94;5020604;28;20040;-77
2024/03/22 00:39:31;;;;;;;17.43;9.07;;;;;;;1.54;100.00;99780.31;5035534;28;20151;-78
2024/03/22 00:41:57;;;;;;;23.13;9.13;;;;;;;1.52;100.00;99776.97;5035485;28;20064;-79
2024/03/22 00:44:23;;;;;;;16.27;9.33;;;;;;;1.45;100.00;99775.69;5019072;28;20075;-79
2024/03/22 00:46:49;;;;;;;16.27;8.80;;;;;;;1.43;100.00;99774.13;5019115;28;20082;-78
2024/03/22 00:49:15;;;;;;;17.63;9.27;;;;;;;1.42;100.00;99770.66;4999187;28;20064;-79
2024/03/22 00:51:44;;;;;;;18.67;9.83;;;;;;;1.32;100.00;99773.94;4999590;28;20061;-79
2024/03/22 00:54:10;;;;;;;20.90;9.20;;;;;;;1.31;100.00;99778.34;5014954;28;20163;-78
2024/03/22 00:56:36;;;;;;;20.53;9.40;;;;;;;1.45;100.00;99778.31;4982275;28;20519;-78
2024/03/22 00:59:06;;;;;;;25.67;11.57;;;;;;;1.33;100.00;99783.47;5014814;28;20056;-81
2024/03/22 01:01:35;;;;;;;25.50;10.25;;;;;;;1.31;100.00;99780.94;4966535;28;20136;-78
2024/03/22 01:04:01;;;;;;;22.50;10.43;;;;;;;1.23;100.00;99774.53;4997940;28;20049;-79
2024/03/22 01:06:27;;;;;;;20.13;10.13;;;;;;;1.22;100.00;99778.91;4997748;28;20053;-79
2024/03/22 01:08:53;;;;;;;24.40;10.93;;;;;;;1.20;100.00;99788.63;4998749;28;20140;-80
2024/03/22 01:11:23;;;;;;;22.80;10.13;;;;;;;1.16;100.00;99765.38;4982114;28;20041;-80
2024/03/22 01:13:49;;;;;;;27.10;11.43;;;;;;;1.16;100.00;99773.22;4981944;28;20119;-77
2024/03/22 01:16:16;;;;;;;21.33;10.60;;;;;;;1.12;100.00;99767.34;4966281;28;20547;-80
2024/03/22 01:18:42;;;;;;;19.73;9.83;;;;;;;1.11;100.00;99767.44;4998624;28;20099;-80
2024/03/22 01:21:11;;;;;;;21.40;10.33;;;;;;;1.08;100.00;99767.63;5032052;28;20278;-80
2024/03/22 01:23:38;;;;;;;25.43;9.77;;;;;;;1.09;100.00;99761.47;5024566;28;20147;-79
2024/03/22 01:26:04;;;;;;;23.23;9.10;;;;;;;1.01;100.00;99768.94;5033238;28;20041;-78
2024/03/22 01:28:31;;;;;;;24.77;8.97;;;;;;;0.99;100.00;99762.97;5023309;28;20068;-78
2024/03/22 01:30:57;;;;;;;24.60;9.60;;;;;;;1.02;100.00;99762.78;5018263;28;20052;-79
2024/03/22 01:33:23;;;;;;;17.27;9.33;;;;;;;1.03;100.00;99761.88;5027611;28;20044;-79
2024/03/22 01:35:49;;;;;;;17.57;9.37;;;;;;;1.01;100.00;99758.50;5019822;28;20052;-79
2024/03/22 01:38:18;;;;;;;19.83;9.50;;;;;;;1.01;100.00;99759.34;5051534;28;20183;-79
2024/03/22 01:40:44;;;;;;;23.10;10.27;;;;;;;0.99;100.00;99755.97;5017624;28;20044;-81
2024/03/22 01:43:10;;;;;;;21.33;10.40;;;;;;;0.99;100.00;99755.97;4966832;28;20515;-80
2024/03/22 01:45:38;;;;;;;22.77;10.23;;;;;;;1.03;100.00;99752.22;4998988;28;20106;-80
2024/03/22 01:48:04;;;;;;;26.50;10.47;;;;;;;0.98;100.00;99743.00;4998681;28;20103;-81
2024/03/22 01:50:30;;;;;;;22.77;10.07;;;;;;;0.99;100.00;99735.06;5014820;28;20052;-80
2024/03/22 01:52:56;;;;;;;27.20;10.30;;;;;;;0.98;100.00;99736.00;4981623;28;20133;-79
2024/03/22 01:55:23;;;;;;;22.80;11.07;;;;;;;0.96;100.00;99730.03;4995715;28;20160;-76
2024/03/22 01:57:52;;;;;;;23.27;10.73;;;;;;;1.00;100.00;99725.44;4982321;28;20118;-77
2024/03/22 02:00:21;;;;;;;21.88;9.77;;;;;;;0.96;100.00;99729.16;5001496;28;20144;-77
2024/03/22 02:02:50;;;;;;;21.60;10.33;;;;;;;1.12;100.00;99722.88;4967259;28;20041;-76
2024/03/22 02:05:21;;;;;;;23.33;10.20;;;;;;;1.17;100.00;99722.59;4981973;28;20053;-77
2024/03/22 02:07:48;;;;;;;24.60;10.67;;;;;;;1.21;100.00;99717.09;4916972;29;20047;-73
2024/03/22 02:10:16;;;;;;;17.43;10.17;;;;;;;1.20;100.00;99718.00;4917309;29;20090;-75
2024/03/22 02:12:44;;;;;;;18.87;10.37;;;;;;;1.06;100.00;99722.44;4932129;29;20063;-75
2024/03/22 02:15:12;;;;;;;25.33;10.73;;;;;;;0.99;100.00;99718.50;4913055;29;20083;-73
2024/03/22 02:17:38;;;;;;;24.73;12.17;;;;;;;1.01;100.00;99722.72;4898087;29;20067;-75
2024/03/22 02:20:07;;;;;;;20.27;10.67;;;;;;;1.05;100.00;99715.50;4917087;29;20122;-77
2024/03/22 02:22:35;;;;;;;23.30;10.57;;;;;;;1.18;100.00;99721.66;4886317;29;20079;-76
2024/03/22 02:25:00;;;;;;;25.20;10.70;;;;;;;1.20;100.00;99711.94;4904096;29;20154;-75
2024/03/22 02:27:26;;;;;;;22.43;11.70;;;;;;;1.22;100.00;99715.28;4904550;29;20595;-76
2024/03/22 02:29:52;;;;;;;18.17;9.97;;;;;;;0.94;100.00;99707.53;4906974;29;20180;-77
2024/03/22 02:32:23;;;;;;;21.83;11.37;;;;;;;0.95;100.00;99707.44;4893633;29;20133;-77
2024/03/22 02:34:50;;;;;;;23.37;11.70;;;;;;;1.02;100.00;99707.88;4886222;29;20060;-73
2024/03/22 02:37:17;;;;;;;25.97;11.80;;;;;;;1.01;100.00;99711.44;4919650;29;20666;-73
2024/03/22 02:39:43;;;;;;;25.73;12.23;;;;;;;0.96;100.00;99701.25;4920931;29;20062;-72
2024/03/22 02:42:09;;;;;;;26.37;12.73;;;;;;;0.78;100.00;99704.19;4918493;28;20047;-73
2024/03/22 02:44:42;;;;;;;26.05;12.68;;;;;;;0.70;100.00;99701.19;4927476;28;20213;-72
2024/03/22 02:47:10;;;;;;;23.15;11.55;;;;;;;0.64;100.00;99709.41;4927547;28;20130;-73
2024/03/22 02:49:38;;;;;;;26.13;12.17;;;;;;;0.64;100.00;99706.81;4941568;28;20054;-73
2024/03/22 02:52:04;;;;;;;20.63;11.53;;;;;;;0.57;100.00;99705.50;4938314;29;20154;-73
2024/03/22 02:54:30;;;;;;;23.23;12.33;;;;;;;0.52;100.00;99708.41;4922658;29;20138;-73
2024/03/22 02:56:56;;;;;;;21.87;11.97;;;;;;;0.55;100.00;99704.75;4938941;29;20153;-74
2024/03/22 02:59:26;;;;;;;25.33;12.97;;;;;;;0.54;100.00;99696.06;4939281;29;20047;-74
2024/03/22 03:01:54;;;;;;;23.93;12.23;;;;;;;0.47;100.00;99699.16;4900190;29;20578;-73
2024/03/22 03:04:22;;;;;;;26.40;12.63;;;;;;;0.43;100.00;99682.00;4900992;29;20124;-74
2024/03/22 03:06:47;;;;;;;24.70;12.30;;;;;;;0.39;100.00;99680.50;4885245;29;20056;-75
2024/03/22 03:09:13;;;;;;;23.83;11.73;;;;;;;0.36;100.00;99681.53;4907658;29;20163;-64
2024/03/22 03:11:39;;;;;;;31.37;13.70;;;;;;;0.33;100.00;99680.88;4954314;29;20047;-68
2024/03/22 03:14:06;;;;;;;30.23;13.60;;;;;;;0.28;100.00;99686.38;4922147;29;20051;-71
2024/03/22 03:16:31;;;;;;;26.83;12.93;;;;;;;0.25;100.00;99690.97;4954380;29;20051;-71
2024/03/22 03:18:57;;;;;;;24.63;13.10;;;;;;;0.20;100.00;99686.00;4922048;29;20039;-73
2024/03/22 03:21:23;;;;;;;26.07;13.47;;;;;;;0.14;100.00;99677.72;4922954;29;20169;-80
2024/03/22 03:23:50;;;;;;;27.30;13.47;;;;;;;0.13;100.00;99679.47;4908214;29;20059;-80
2024/03/22 03:26:16;;;;;;;29.07;13.80;;;;;;;0.10;100.00;99684.03;4937408;29;20070;-80
2024/03/22 03:28:42;;;;;;;30.60;14.77;;;;;;;0.12;100.00;99688.25;4962232;28;20087;-80
2024/03/22 03:31:07;;;;;;;27.27;14.83;;;;;;;0.07;100.00;99685.06;4961579;28;20076;-80
2024/03/22 03:33:33;;;;;;;32.93;14.50;;;;;;;0.08;100.00;99693.75;4934077;29;20125;-79
2024/03/22 03:35:59;;;;;;;29.93;14.90;;;;;;;0.05;100.00;99686.09;4936053;29;20047;-78
2024/03/22 03:38:25;;;;;;;23.80;13.57;;;;;;;0.06;100.00;99685.16;4927603;28;20054;-77
2024/03/22 03:40:51;;;;;;;23.67;13.70;;;;;;;0.06;100.00;99682.53;4981112;28;20101;-79
2024/03/22 03:43:17;;;;;;;28.90;14.33;;;;;;;0.06;100.00;99674.72;5005297;28;20564;-79
2024/03/22 03:45:42;;;;;;;28.20;14.63;;;;;;;0.10;100.00;99669.22;5003049;28;20033;-78
2024/03/22 03:48:08;;;;;;;28.87;14.87;;;;;;;0.13;100.00;99665.56;5016566;28;20048;-74
2024/03/22 03:50:34;;;;;;;26.03;14.30;;;;;;;0.19;100.00;99663.44;4999063;28;20427;-73
2024/03/22 03:53:01;;;;;;;26.83;14.30;;;;;;;0.22;100.00;99658.00;4976641;28;20066;-71
2024/03/22 03:55:28;;;;;;;24.87;14.00;;;;;;;0.25;100.00;99657.00;4944450;28;20062;-71
2024/03/22 03:57:56;;;;;;;29.80;14.57;;;;;;;0.34;100.00;99659.06;4972981;28;20069;-70
2024/03/22 04:00:21;;;;;;;26.07;14.37;;;;;;;0.35;100.00;99658.13;4997868;28;20168;-68
2024/03/22 04:02:50;;;;;;;28.03;15.07;;;;;;;0.45;100.00;99660.06;4997054;28;20048;-70
2024/03/22 04:05:16;;;;;;;25.13;13.23;;;;;;;0.40;100.00;99656.06;5015048;28;20602;-71
2024/03/22 04:07:42;;;;;;;27.57;13.57;;;;;;;0.40;100.00;99664.72;5031369;28;20125;-72
2024/03/22 04:10:10;;;;;;;27.27;15.07;;;;;;;0.44;100.00;99663.63;5014947;28;20060;-73
2024/03/22 04:12:36;;;;;;;29.53;14.90;;;;;;;0.46;100.00;99660.91;4957174;28;20081;-78
2024/03/22 04:15:02;;;;;;;27.10;15.27;;;;;;;0.51;100.00;99661.47;4909430;28;20513;-72
2024/03/22 04:17:29;;;;;;;25.00;14.37;;;;;;;0.53;100.00;99668.28;4956959;28;20053;-70
2024/03/22 04:19:55;;;;;;;33.23;15.70;;;;;;;0.53;100.00;99664.81;4941113;28;20066;-73
2024/03/22 04:22:21;;;;;;;29.27;15.10;;;;;;;0.54;100.00;99656.06;4939431;28;20051;-75
2024/03/22 04:24:47;;;;;;;26.30;14.60;;;;;;;0.60;100.00;99653.06;4940715;28;20054;-74
2024/03/22 04:27:13;;;;;;;26.60;15.83;;;;;;;0.62;100.00;99645.94;4956362;28;20074;-75
2024/03/22 04:29:38;;;;;;;29.13;15.07;;;;;;;0.62;100.00;99645.94;4955547;28;20440;-74
2024/03/22 04:32:04;;;;;;;29.03;15.23;;;;;;;0.57;100.00;99638.41;4955746;28;20498;-72
2024/03/22 04:34:30;;;;;;;33.23;15.30;;;;;;;0.62;100.00;99640.72;4956240;28;20047;-71
2024/03/22 04:36:56;;;;;;;28.97;15.30;;;;;;;0.64;100.00;99639.72;4976779;28;20049;-73
2024/03/22 04:39:24;;;;;;;33.77;16.20;;;;;;;0.65;100.00;99646.59;4946825;28;20046;-73
2024/03/22 04:41:50;;;;;;;37.43;15.93;;;;;;;0.66;100.00;99650.06;4962153;28;20136;-72
2024/03/22 04:44:15;;;;;;;28.50;15.10;;;;;;;0.63;100.00;99647.66;4963051;28;20133;-73
2024/03/22 04:46:41;;;;;;;29.37;15.30;;;;;;;0.70;100.00;99654.16;4994903;28;20077;-72
2024/03/22 04:49:07;;;;;;;29.83;15.70;;;;;;;0.77;100.00;99647.63;4978838;28;20136;-72
2024/03/22 04:51:33;;;;;;;24.30;14.20;;;;;;;0.80;100.00;99650.03;4962156;28;20492;-71
2024/03/22 04:53:58;;;;;;;27.80;15.80;;;;;;;0.76;100.00;99648.53;4946575;28;20053;-70
2024/03/22 04:56:24;;;;;;;28.63;15.27;;;;;;;0.77;100.00;99650.25;5010902;28;20050;-70
2024/03/22 04:58:50;;;;;;;29.53;15.20;;;;;;;0.76;100.00;99653.75;4991827;28;20053;-70
2024/03/22 05:01:16;;;;;;;32.40;16.50;;;;;;;0.80;100.00;99652.66;5009825;28;20046;-71
2024/03/22 05:03:42;;;;;;;35.07;15.30;;;;;;;0.92;100.00;99655.31;4991191;28;20727;-70
2024/03/22 05:06:08;;;;;;;35.57;16.23;;;;;;;0.99;100.00;99648.78;5050572;28;20045;-71
2024/03/22 05:08:34;;;;;;;28.53;16.20;;;;;;;1.04;100.00;99646.69;5051114;28;20378;-71
2024/03/22 05:11:00;;;;;;;38.10;18.17;;;;;;;1.04;100.00;99646.69;5034752;28;20063;-71
2024/03/22 05:13:27;;;;;;;31.50;16.93;;;;;;;1.13;100.00;99645.25;5051009;28;20098;-71
2024/03/22 05:15:53;;;;;;;29.70;14.93;;;;;;;1.21;100.00;99650.84;5051755;28;20135;-71
2024/03/22 05:18:19;;;;;;;29.43;15.50;;;;;;;1.21;100.00;99643.00;5034623;28;20144;-71
2024/03/22 05:20:45;;;;;;;31.07;15.47;;;;;;;1.28;100.00;99649.50;5035074;28;20079;-71
2024/03/22 05:23:10;;;;;;;29.93;15.00;;;;;;;1.33;100.00;99640.44;5044164;28;20072;-71
2024/03/22 05:25:36;;;;;;;30.53;15.60;;;;;;;1.37;100.00;99635.81;5025354;28;20715;-71
2024/03/22 05:28:02;;;;;;;33.40;14.33;;;;;;;1.43;100.00;99630.19;5076149;28;20063;-70
2024/03/22 05:30:28;;;;;;;25.23;14.73;;;;;;;1.52;100.00;99647.91;5067789;28;20494;-70
2024/03/22 05:32:54;;;;;;;26.73;13.90;;;;;;;1.60;100.00;99635.97;5068044;28;20048;-70
2024/03/22 05:35:19;;;;;;;27.53;14.53;;;;;;;1.71;100.00;99637.88;5049851;28;20076;-69
2024/03/22 05:37:46;;;;;;;26.53;14.93;;;;;;;1.78;100.00;99634.72;5055535;28;20048;-78
2024/03/22 05:40:16;;;;;;;25.37;14.23;;;;;;;1.98;100.00;99643.88;5039623;28;20067;-70
2024/03/22 05:42:51;;;;;;;30.73;15.83;;;;;;;2.02;100.00;99634.88;5072233;28;20484;-78
2024/03/22 05:45:17;;;;;;;27.50;15.63;;;;;;;2.07;100.00;99635.41;5035532;28;20067;-73
2024/03/22 05:47:42;;;;;;;32.27;16.37;;;;;;;2.07;100.00;99645.88;5051309;28;20194;-74
2024/03/22 05:50:09;;;;;;;35.67;16.30;;;;;;;2.01;100.00;99625.34;5034036;28;20135;-74
2024/03/22 05:52:35;;;;;;;30.97;15.57;;;;;;;1.99;100.00;99624.59;5050818;28;20123;-74
2024/03/22 05:55:01;;;;;;;26.17;14.87;;;;;;;2.01;100.00;99627.13;5017255;28;20368;-73
2024/03/22 05:57:29;;;;;;;27.60;15.63;;;;;;;2.02;100.00;99616.53;5018040;28;20476;-74
2024/03/22 05:59:55;;;;;;;34.47;16.00;;;;;;;2.04;100.00;99617.28;5021601;28;20048;-74
2024/03/22 06:02:20;;;;;;;29.63;15.77;;;;;;;2.05;100.00;99613.69;5054593;28;20048;-73
2024/03/22 06:04:47;;;;;;;35.17;17.00;;;;;;;2.10;100.00;99613.38;5035884;28;20052;-73
2024/03/22 06:07:14;;;;;;;26.37;15.60;;;;;;;2.23;100.00;99616.84;5033689;28;20048;-74
2024/03/22 06:09:46;;;;;;;29.83;15.67;;;;;;;2.28;100.00;99615.56;5050459;28;20041;-75
2024/03/22 06:12:13;;;;;;;24.67;13.43;;;;;;;2.48;100.00;99622.88;5033865;28;20041;-74
2024/03/22 06:14:42;;;;;;;27.37;14.90;;;;;;;2.58;100.00;99623.06;5055449;28;20047;-74
2024/03/22 06:17:08;;;;;;;25.10;14.77;;;;;;;2.60;100.00;99616.75;5054656;28;20131;-75
2024/03/22 06:19:37;;;;;;;34.50;17.40;;;;;;;2.68;100.00;99611.81;5038419;28;20136;-75
2024/03/22 06:22:03;;;;;;;30.27;17.13;;;;;;;2.72;100.00;99610.63;5037705;28;20040;-75
2024/03/22 06:24:29;;;;;;;30.37;15.93;;;;;;;2.85;100.00;99616.69;5053545;28;20478;-74
2024/03/22 06:26:55;;;;;;;28.83;15.30;;;;;;;2.97;100.00;99613.19;5070265;28;20041;-75
2024/03/22 06:29:21;;;;;;;29.37;14.70;;;;;;;3.09;100.00;99609.66;5070262;28;20051;-74
2024/03/22 06:31:47;;;;;;;25.23;14.53;;;;;;;3.22;100.00;99609.59;5037070;28;20056;-75
2024/03/22 06:34:13;;;;;;;27.67;14.53;;;;;;;3.31;100.00;99608.94;5070430;28;20090;-73
2024/03/22 06:36:39;;;;;;;34.37;15.53;;;;;;;3.41;100.00;99610.75;5070378;28;20066;-75
2024/03/22 06:39:07;;;;;;;23.77;12.77;;;;;;;3.61;100.00;99604.03;5038007;28;20532;-75
2024/03/22 06:41:34;;;;;;;24.10;13.80;;;;;;;3.78;100.00;99614.09;5037821;28;20490;-75
2024/03/22 06:44:01;;;;;;;28.20;14.60;;;;;;;3.88;100.00;99614.22;5070355;28;20044;-75
2024/03/22 06:46:26;;;;;;;26.70;14.70;;;;;;;3.94;100.00;99608.50;5071104;28;20506;-75
2024/03/22 06:48:52;;;;;;;35.57;17.00;;;;;;;4.00;100.00;99594.91;5071076;28;20041;-75
2024/03/22 06:51:19;;;;;;;33.10;16.53;;;;;;;4.09;100.00;99608.16;5053843;28;20041;-75
2024/03/22 06:53:47;;;;;;;33.10;15.87;;;;;;;4.16;100.00;99611.16;5071652;28;20099;-73
2024/03/22 06:56:13;;;;;;;27.03;14.50;;;;;;;4.24;100.00;99603.53;5020754;28;20044;-75
2024/03/22 06:58:39;;;;;;;20.47;13.37;;;;;;;4.39;100.00;99604.94;5037383;28;20091;-74
2024/03/22 07:01:05;;;;;;;27.43;14.20;;;;;;;4.65;100.00;99612.47;5070845;28;20072;-77
2024/03/22 07:03:31;;;;;;;26.63;14.27;;;;;;;4.93;100.00;99614.59;5037137;28;20048;-75
2024/03/22 07:06:00;;;;;;;25.73;13.40;;;;;;;5.18;100.00;99611.63;5039800;28;20040;-75
2024/03/22 07:08:27;;;;;;;27.17;13.27;;;;;;;5.29;100.00;99604.66;5073813;28;20044;-75
2024/03/22 07:11:18;;;;;;;28.57;14.50;;;;;;;5.28;100.00;99606.44;5073684;28;20139;-75
2024/03/22 07:13:44;;;;;;;31.23;16.67;;;;;;;5.42;100.00;99610.56;5040153;28;20139;-74
2024/03/22 07:16:10;;;;;;;25.83;15.60;;;;;;;5.60;100.00;99602.00;5053395;28;20125;-74
2024/03/22 07:18:36;;;;;;;31.37;16.97;;;;;;;5.80;97.50;99598.53;5053666;28;20483;-75
2024/03/22 07:21:03;;;;;;;28.10;15.97;;;;;;;6.16;95.21;99595.44;5053201;28;20363;-74
2024/03/22 07:23:29;;;;;;;33.77;15.43;;;;;;;6.57;91.24;99591.84;5020426;28;20041;-75
2024/03/22 07:25:55;;;;;;;25.90;14.73;;;;;;;6.70;88.04;99590.63;5037168;28;20049;-75
2024/03/22 07:28:21;;;;;;;23.27;13.87;;;;;;;7.14;88.42;99591.16;5037019;28;20083;-75
2024/03/22 07:30:47;;;;;;;25.48;14.98;;;;;;;8.02;82.44;99587.34;5036708;28;20045;-75
2024/03/22 07:33:17;;;;;;;28.60;16.05;;;;;;;9.59;74.27;99586.06;5037423;28;20047;-75
2024/03/22 07:35:44;;;;;;;24.40;14.60;;;;;;;13.11;60.22;99579.66;5053976;28;20049;-75
2024/03/22 07:38:10;;;;;;;22.10;13.02;;;;;;;16.33;45.32;99585.47;5054435;28;20478;-73
2024/03/22 07:40:37;;;;;;;24.30;12.35;;;;;;;19.13;35.64;99569.75;5037175;28;20036;-74
2024/03/22 07:43:05;;;;;;;25.15;11.98;;;;;;;21.21;29.98;99567.16;5053221;28;20053;-76
2024/03/22 07:45:35;;;;;;;22.67;13.20;;;;;;;23.07;26.54;99569.03;5036928;28;20479;-75
2024/03/22 07:48:01;;;;;;;22.10;11.95;;;;;;;24.30;23.40;99556.38;5036221;28;20037;-76
2024/03/22 07:50:27;;;;;;;16.90;10.18;;;;;;;25.71;21.81;99551.69;5036519;28;20049;-76
2024/03/22 07:52:53;;;;;;;17.33;10.10;;;;;;;27.18;19.95;99562.50;5019622;28;20059;-75
2024/03/22 07:55:19;;;;;;;14.75;10.48;;;;;;;27.97;18.68;99547.44;5019482;28;20427;-75
2024/03/22 07:57:44;;;;;;;17.83;10.43;;;;;;;27.92;17.43;99552.91;5035665;28;20040;-77
2024/03/22 08:00:11;;;;;;;20.40;11.27;;;;;;;26.75;17.27;99544.63;5053740;28;20485;-76
2024/03/22 08:02:40;;;;;;;14.18;9.52;;;;;;;26.99;18.09;99532.19;5020460;28;20068;-76
2024/03/22 08:05:06;;;;;;;21.23;10.75;;;;;;;28.20;16.47;99522.28;5003034;28;20233;-76
2024/03/22 08:07:32;;;;;;;17.98;10.25;;;;;;;28.87;16.03;99517.25;5019760;28;20391;-76
2024/03/22 08:09:59;;;;;;;11.45;8.05;;;;;;;29.87;15.37;99504.09;5052208;28;20095;-77
2024/03/22 08:12:25;;;;;;;15.30;9.60;;;;;;;30.10;14.46;99511.56;5052486;28;20140;-76
2024/03/22 08:14:51;;;;;;;16.38;8.15;;;;;;;29.85;14.21;99517.25;5029156;28;20130;-76
2024/03/22 08:17:17;;;;;;;8.68;5.93;;;;;;;30.79;13.80;99503.75;5091662;28;20043;-75
2024/03/22 08:19:44;;;;;;;10.32;6.93;;;;;;;30.77;13.14;99500.47;5075648;28;20071;-75
2024/03/22 08:22:10;;;;;;;9.80;6.32;;;;;;;30.47;13.58;99489.84;5092740;28;20467;-75
2024/03/22 08:24:37;;;;;;;12.23;6.68;;;;;;;29.75;13.51;99487.22;5076014;28;20164;-76
2024/03/22 08:27:03;;;;;;;10.48;6.15;;;;;;;29.66;13.43;99488.94;5093107;28;20036;-76
2024/03/22 08:29:29;;;;;;;8.00;5.43;;;;;;;29.05;13.45;99480.22;5059048;28;20048;-76
2024/03/22 08:31:55;;;;;;;9.20;6.00;;;;;;;28.59;13.66;99493.28;5042049;28;20050;-75
2024/03/22 08:34:21;;;;;;;11.10;6.25;;;;;;;28.04;13.83;99485.19;5075099;28;20470;-76
2024/03/22 08:36:47;;;;;;;12.02;6.35;;;;;;;27.33;14.18;99476.13;5092004;28;20062;-75
2024/03/22 08:39:13;;;;;;;8.30;6.20;;;;;;;27.37;14.47;99470.97;5074994;28;20044;-75
2024/03/22 08:41:40;;;;;;;10.50;6.53;;;;;;;27.05;14.60;99456.66;5058623;28;20052;-75
2024/03/22 08:44:07;;;;;;;12.07;6.68;;;;;;;27.16;14.70;99459.16;5041907;28;20032;-75
2024/03/22 08:46:33;;;;;;;18.13;8.38;;;;;;;26.71;14.42;99463.66;5058390;28;20083;-75
2024/03/22 08:48:59;;;;;;;14.25;7.43;;;;;;;26.80;14.86;99464.78;5091344;28;20070;-75
2024/03/22 08:51:24;;;;;;;13.60;7.95;;;;;;;27.31;14.36;99451.03;5091553;28;20048;-75
2024/03/22 08:53:50;;;;;;;9.77;7.47;;;;;;;27.75;14.06;99456.78;5091241;28;20043;-74
2024/03/22 08:56:16;;;;;;;9.95;7.00;;;;;;;27.96;14.16;99444.78;5033982;28;20084;-74
2024/03/22 08:58:42;;;;;;;13.60;7.75;;;;;;;27.82;13.84;99439.03;5018211;28;20052;-72
2024/03/22 09:01:09;;;;;;;14.13;8.05;;;;;;;28.22;13.48;99423.69;5034054;28;20061;-76
2024/03/22 09:03:39;;;;;;;10.00;7.20;;;;;;;29.33;13.27;99427.56;5050740;28;20037;-75
2024/03/22 09:06:05;;;;;;;11.93;6.78;;;;;;;30.02;12.45;99427.25;4999218;28;20060;-75
2024/03/22 09:08:33;;;;;;;12.13;6.65;;;;;;;29.64;11.93;99431.72;4996194;28;20076;-76
2024/03/22 09:10:58;;;;;;;10.95;7.03;;;;;;;29.45;12.73;99419.81;4998291;28;20057;-76
2024/03/22 09:13:25;;;;;;;7.90;6.40;;;;;;;29.33;12.38;99411.16;5030870;28;20038;-75
2024/03/22 09:15:57;;;;;;;13.88;6.53;;;;;;;28.99;12.42;99416.56;4999411;28;20053;-75
2024/03/22 09:18:23;;;;;;;10.68;7.45;;;;;;;28.56;12.78;99408.31;5016080;28;20087;-77
2024/03/22 09:20:49;;;;;;;12.35;6.13;;;;;;;28.65;12.32;99415.63;5019206;28;20037;-76
2024/03/22 09:23:14;;;;;;;12.30;6.32;;;;;;;28.20;12.57;99406.78;5016292;28;20133;-76
2024/03/22 09:25:40;;;;;;;6.78;5.40;;;;;;;28.09;12.34;99411.47;5014703;28;20139;-76
2024/03/22 09:28:06;;;;;;;6.43;5.57;;;;;;;27.78;12.52;99407.94;5049233;28;20080;-77
2024/03/22 09:30:33;;;;;;;8.35;5.65;;;;;;;27.92;12.83;99398.09;4971796;28;20089;-77
2024/03/22 09:32:58;;;;;;;8.02;6.00;;;;;;;28.56;12.80;99405.56;4955347;28;20482;-76
2024/03/22 09:35:24;;;;;;;8.02;5.60;;;;;;;29.69;11.85;99403.50;4955484;28;20156;-76
2024/03/22 09:37:50;;;;;;;8.68;5.90;;;;;;;30.20;11.56;99388.22;4955418;28;20045;-75
2024/03/22 09:40:16;;;;;;;7.35;5.32;;;;;;;31.10;10.72;99398.81;4939409;28;20051;-76
2024/03/22 09:42:44;;;;;;;7.22;5.00;;;;;;;30.79;10.70;99385.81;4955676;28;20065;-77
2024/03/22 09:45:11;;;;;;;8.45;4.90;;;;;;;30.28;10.85;99382.88;4942426;28;20478;-77
2024/03/22 09:47:37;;;;;;;7.53;5.13;;;;;;;29.98;10.75;99391.44;4974714;28;20046;-76
2024/03/22 09:50:07;;;;;;;7.15;5.43;;;;;;;29.80;10.56;99394.09;4974295;28;20466;-77
2024/03/22 09:52:33;;;;;;;8.32;6.45;;;;;;;28.99;11.22;99383.72;4974556;28;20477;-77
2024/03/22 09:54:59;;;;;;;7.55;5.53;;;;;;;29.02;11.59;99385.06;4974620;28;20133;-77
2024/03/22 09:57:26;;;;;;;9.93;5.80;;;;;;;29.86;11.26;99390.97;4989934;28;20129;-75
2024/03/22 09:59:52;;;;;;;8.70;6.00;;;;;;;29.10;11.16;99392.72;4931715;28;20110;-79
2024/03/22 10:02:19;;;;;;;8.52;6.05;;;;;;;28.67;11.85;99388.84;5002011;28;20532;-76
2024/03/22 10:04:45;;;;;;;7.38;5.78;;;;;;;28.47;11.77;99374.47;4980331;28;20045;-79
2024/03/22 10:07:11;;;;;;;10.93;5.90;;;;;;;28.31;11.63;99381.06;5001842;28;20111;-77
2024/03/22 10:09:37;;;;;;;10.88;6.20;;;;;;;27.55;12.09;99380.38;5061772;28;20052;-78
2024/03/22 10:12:03;;;;;;;8.65;6.43;;;;;;;26.69;12.57;99367.72;5040158;28;20045;-78
2024/03/22 10:14:31;;;;;;;7.18;6.10;;;;;;;26.78;12.74;99372.41;5085697;28;20044;-77
2024/03/22 10:16:57;;;;;;;8.98;6.47;;;;;;;26.33;12.93;99366.75;5058178;28;20052;-76
2024/03/22 10:19:23;;;;;;;9.82;6.38;;;;;;;27.18;12.56;99375.19;5033219;28;20048;-75
2024/03/22 10:22:02;;;;;;;8.00;5.80;;;;;;;27.79;12.43;99370.53;5037080;28;20049;-75
2024/03/22 10:24:29;;;;;;;11.10;6.47;;;;;;;27.05;12.83;99366.69;5061253;28;20094;-75
2024/03/22 10:26:55;;;;;;;9.00;6.72;;;;;;;26.37;13.09;99349.63;5065076;28;20064;-75
2024/03/22 10:29:22;;;;;;;14.45;7.93;;;;;;;25.54;13.69;99357.84;5053917;28;20490;-75
2024/03/22 10:31:50;;;;;;;12.52;6.45;;;;;;;25.33;14.17;99349.81;5053548;28;20046;-75
2024/03/22 10:34:16;;;;;;;11.25;7.05;;;;;;;25.35;14.31;99342.22;5053617;28;20048;-75
2024/03/22 10:36:44;;;;;;;9.23;7.10;;;;;;;25.99;14.05;99344.56;5037344;28;20044;-75
2024/03/22 10:39:11;;;;;;;11.32;6.68;;;;;;;26.03;14.17;99340.22;5070457;28;20052;-75
2024/03/22 10:41:37;;;;;;;15.20;7.90;;;;;;;25.71;14.23;99327.78;5040413;28;20368;-76
2024/03/22 10:44:04;;;;;;;12.52;7.22;;;;;;;25.49;14.35;99325.19;5023910;28;20422;-75
2024/03/22 10:46:31;;;;;;;9.27;6.65;;;;;;;26.08;14.03;99323.09;5054351;28;20048;-75
2024/03/22 10:48:57;;;;;;;10.20;6.65;;;;;;;25.53;14.47;99318.16;5061629;28;20047;-75
2024/03/22 10:51:27;;;;;;;11.00;7.97;;;;;;;24.27;15.35;99326.16;5074351;28;20056;-75
2024/03/22 10:53:54;;;;;;;14.05;7.65;;;;;;;24.09;15.64;99326.47;5074159;28;20133;-75
2024/03/22 10:56:23;;;;;;;10.70;7.40;;;;;;;24.62;15.32;99307.53;5073973;28;20048;-76
2024/03/22 10:58:52;;;;;;;8.27;7.15;;;;;;;24.92;15.15;99310.59;5057371;28;20048;-75
2024/03/22 11:01:26;;;;;;;9.65;7.22;;;;;;;25.15;14.81;99301.25;5057315;28;20052;-75
2024/03/22 11:04:03;;;;;;;11.93;7.97;;;;;;;24.86;15.16;99309.69;5075751;28;20044;-75
2024/03/22 11:06:31;;;;;;;12.70;7.43;;;;;;;25.32;14.85;99302.75;5090907;28;20036;-75
2024/03/22 11:08:59;;;;;;;12.15;7.55;;;;;;;25.48;14.40;99307.22;5060690;28;20049;-75
2024/03/22 11:11:28;;;;;;;12.77;7.93;;;;;;;24.83;14.93;99293.13;5054480;28;20129;-76
2024/03/22 11:13:56;;;;;;;11.55;7.63;;;;;;;24.46;15.41;99284.03;5054623;28;20106;-76
2024/03/22 11:16:22;;;;;;;11.25;7.20;;;;;;;24.47;15.91;99275.63;5054644;28;20045;-77
2024/03/22 11:18:48;;;;;;;10.13;7.22;;;;;;;24.56;15.42;99281.41;5037371;28;20059;-76